Portada
METAR-TAF:

METAR-TAF

Aeroports :

Lyndonville, Vermont, Estats Units d'Amèrica

latitud: 44-34-09N, longitud: 072-01-05W, altitud: 362 m

Observació

L'informe es va fer fa 27 minuts, a les 22:55 UTC
Vent 7 kt del Sud-Est
Temperatura 19°C
Humitat 34%
Pressió 1023 hPa
Visibilitat: 16.1 km
Cel clar

METAR: KCDA 242255Z AUTO 14007KT 10SM CLR 19/03 A3021 RMK AO2 T01920029

Hora: 19:22 (23:22 UTC)


TAF: manca

Observacions i pronòstics meteorològics de més de 4000 aeroports (METAR i TAF).

Les estacions disponibles són els punts grocs i vermells al mapa.

Posi el ratolí al punt desitjat per veure el nom de l'estació.

Feu clic per veure les observacions i els pronòstics meteorològics.

Per canviar el mapa: feu clic els botons verds amb una creu de color negre per apropar; al botó verd amb un guió per allunyar la imatge; o en les fletxes verdes per a mapes adjacents.


METAR-TAF: